createdAt,value
2018-07-05T00:00:07.480Z,12.48
2018-07-05T00:06:08.038Z,15.01
2018-07-05T00:10:08.695Z,12.8
2018-07-05T00:16:09.164Z,10.98
2018-07-05T00:20:09.750Z,12.21
2018-07-05T00:26:10.483Z,14.53
2018-07-05T00:32:11.081Z,14.04
2018-07-05T00:36:11.748Z,13.71
2018-07-05T00:42:12.230Z,13.69
2018-07-05T00:46:12.852Z,16.59
2018-07-05T00:48:13.386Z,12.13
2018-07-05T00:52:13.966Z,14.33
2018-07-05T00:58:14.553Z,13.23
2018-07-05T01:02:15.156Z,13.25
2018-07-05T01:08:15.797Z,11.47
2018-07-05T01:12:16.322Z,13.26
2018-07-05T01:14:16.939Z,13.24
2018-07-05T01:18:17.581Z,12.53
2018-07-05T01:24:18.193Z,13.41
2018-07-05T01:28:18.802Z,12.91
2018-07-05T01:34:19.413Z,14.35
2018-07-05T01:40:20.122Z,15.79
2018-07-05T01:44:20.789Z,16.49
2018-07-05T01:50:21.502Z,11.74
2018-07-05T01:54:21.969Z,13.23
2018-07-05T02:00:22.951Z,14.21
2018-07-05T02:06:23.630Z,11.03
2018-07-05T02:10:24.131Z,14.61
2018-07-05T02:16:24.671Z,11.14
2018-07-05T02:20:25.190Z,12.19
2018-07-05T02:22:25.859Z,13.35
2018-07-05T02:26:26.321Z,16.34
2018-07-05T02:32:26.972Z,13.57
2018-07-05T02:36:27.474Z,12.63
2018-07-05T02:42:28.185Z,12.76
2018-07-05T02:46:28.694Z,14.54
2018-07-05T02:48:29.195Z,14.25
2018-07-05T02:52:29.859Z,13.93
2018-07-05T02:58:30.394Z,15.24
2018-07-05T03:02:31.120Z,13.76
2018-07-05T03:08:31.687Z,13.12
2018-07-05T03:12:32.307Z,11.76
2018-07-05T03:14:32.867Z,13.11
2018-07-05T03:18:33.441Z,13.8
2018-07-05T03:24:34.041Z,14.83
2018-07-05T03:28:34.629Z,15.16
2018-07-05T03:34:35.268Z,15.42
2018-07-05T03:40:35.902Z,14.41
2018-07-05T03:44:36.483Z,13.94
2018-07-05T03:50:37.026Z,14.43
2018-07-05T03:54:37.639Z,15.13
2018-07-05T04:00:38.233Z,16.13
2018-07-05T04:06:38.859Z,13.43
2018-07-05T04:10:39.460Z,15.3
2018-07-05T04:16:40.144Z,14.37
2018-07-05T04:20:40.660Z,16.24
2018-07-05T04:22:41.311Z,16.52
2018-07-05T04:26:41.990Z,16.08
2018-07-05T04:32:42.530Z,15.86
2018-07-05T04:36:43.061Z,19.63
2018-07-05T04:42:43.713Z,15.14
2018-07-05T04:46:44.342Z,17.18
2018-07-05T04:48:44.876Z,16.54
2018-07-05T04:52:45.626Z,16.53
2018-07-05T04:58:46.169Z,14.02
2018-07-05T05:02:46.819Z,14.34
2018-07-05T05:08:47.511Z,15.72
2018-07-05T05:12:48.086Z,16.67
2018-07-05T05:14:48.575Z,15.45
2018-07-05T05:18:49.259Z,15.73
2018-07-05T05:24:49.782Z,14.74
2018-07-05T05:28:50.570Z,16.66
2018-07-05T05:34:51.121Z,16.71
2018-07-05T05:40:51.834Z,16.23
2018-07-05T05:44:52.408Z,17.67
2018-07-05T05:50:52.961Z,14.79
2018-07-05T05:54:53.609Z,22.75
2018-07-05T06:00:54.170Z,16.1
2018-07-05T06:06:54.815Z,20.87
2018-07-05T06:10:55.382Z,17.06
2018-07-05T06:16:55.999Z,18.02
2018-07-05T06:20:56.626Z,21.1
2018-07-05T06:22:57.226Z,21.91
2018-07-05T06:26:57.867Z,20.03
2018-07-05T06:32:59.008Z,19.31
2018-07-05T06:36:59.621Z,18.96
2018-07-05T06:43:00.230Z,15.39
2018-07-05T06:47:00.809Z,16.71
2018-07-05T06:49:01.398Z,15.56
2018-07-05T06:53:02.099Z,17.22
2018-07-05T06:59:02.579Z,15.52
2018-07-05T07:03:03.161Z,17.83
2018-07-05T07:09:03.930Z,16.64
2018-07-05T07:15:04.581Z,15.4
2018-07-05T07:19:05.283Z,17.66
2018-07-05T07:25:05.884Z,15.02
2018-07-05T07:29:06.579Z,15.38
2018-07-05T07:35:07.157Z,14.94
2018-07-05T07:41:07.829Z,14.84
2018-07-05T07:45:08.910Z,14.18
2018-07-05T07:51:09.545Z,15.66
2018-07-05T07:55:10.150Z,15.87
2018-07-05T08:01:10.710Z,16.01
2018-07-05T08:07:11.422Z,13.93
2018-07-05T08:11:12.084Z,15.67
2018-07-05T08:17:12.672Z,13
2018-07-05T08:21:13.242Z,14
2018-07-05T08:23:13.773Z,12.99
2018-07-05T08:27:14.358Z,13.6
2018-07-05T08:33:14.989Z,12.66
2018-07-05T08:37:15.684Z,10.03
2018-07-05T08:43:16.361Z,11.38
2018-07-05T08:47:17.002Z,13.37
2018-07-05T08:49:17.538Z,11.89
2018-07-05T08:53:18.144Z,12.83
2018-07-05T08:59:18.757Z,12.94
2018-07-05T09:03:19.375Z,13.12
2018-07-05T09:09:20.219Z,13.77
2018-07-05T09:15:21.249Z,13.32
2018-07-05T09:19:21.882Z,11.02
2018-07-05T09:25:22.579Z,12.32
2018-07-05T09:29:23.264Z,10.92
2018-07-05T09:35:23.816Z,11.89
2018-07-05T09:41:24.559Z,12.57
2018-07-05T09:45:25.602Z,13.66
2018-07-05T09:51:26.331Z,11.44
2018-07-05T09:55:26.954Z,12.36
2018-07-05T09:57:27.411Z,10.59
2018-07-05T10:01:28.050Z,12.14
2018-07-05T10:07:28.642Z,10.46
2018-07-05T10:11:29.304Z,13.84
2018-07-05T10:17:29.865Z,10.65
2018-07-05T10:21:30.521Z,11.7
2018-07-05T10:23:30.983Z,11.69
2018-07-05T10:27:31.626Z,12.09
2018-07-05T10:33:32.261Z,10.96
2018-07-05T10:37:32.858Z,11.72
2018-07-05T10:43:33.448Z,11
2018-07-05T10:47:34.128Z,11.52
2018-07-05T10:49:34.593Z,12.88
2018-07-05T10:53:35.235Z,11.93
2018-07-05T10:59:35.773Z,9.63
2018-07-05T11:03:36.358Z,11.67
2018-07-05T11:09:36.928Z,11.91
2018-07-05T11:15:37.586Z,10.9
2018-07-05T11:19:38.165Z,10.68
2018-07-05T11:25:38.740Z,10.48
2018-07-05T11:29:39.357Z,11.14
2018-07-05T11:35:42.979Z,9.67
2018-07-05T11:41:43.628Z,11.45
2018-07-05T11:45:44.272Z,12.09
2018-07-05T11:51:44.977Z,8.95
2018-07-05T11:55:45.600Z,10.63
2018-07-05T11:57:46.191Z,11.14
2018-07-05T12:01:46.825Z,11.78
2018-07-05T12:07:47.456Z,10.19
2018-07-05T12:11:48.120Z,10.45
2018-07-05T12:17:48.734Z,10.96
2018-07-05T12:21:49.379Z,10.63
2018-07-05T12:23:50.072Z,9.02
2018-07-05T12:27:50.625Z,9.45
2018-07-05T12:33:51.442Z,9.8
2018-07-05T12:37:52.052Z,10.78
2018-07-05T12:43:52.747Z,8.8
2018-07-05T12:49:53.479Z,9.67
2018-07-05T12:53:54.090Z,10.75
2018-07-05T12:59:54.649Z,9.97
2018-07-05T13:03:55.322Z,10.86
2018-07-05T13:09:55.960Z,11.55
2018-07-05T13:15:56.525Z,10.65
2018-07-05T13:19:57.103Z,12.1
2018-07-05T13:25:57.718Z,10.04
2018-07-05T13:29:58.327Z,10.25
2018-07-05T13:31:59.276Z,8.95
2018-07-05T13:35:59.928Z,9.39
2018-07-05T13:42:00.504Z,9.11
2018-07-05T13:46:01.238Z,10.89
2018-07-05T13:52:01.885Z,9.57
2018-07-05T13:56:02.545Z,12.32
2018-07-05T13:58:03.125Z,10.79
2018-07-05T14:02:03.758Z,11.69
2018-07-05T14:08:04.434Z,8.81
2018-07-05T14:12:05.008Z,10.59
2018-07-05T14:18:05.664Z,9.68
2018-07-05T14:22:06.180Z,12.05
2018-07-05T14:24:06.733Z,9.92
2018-07-05T14:28:07.329Z,10.98
2018-07-05T14:34:08.099Z,10.6
2018-07-05T14:38:08.737Z,10.74
2018-07-05T14:44:09.285Z,14.12
2018-07-05T14:50:12.937Z,10.63
2018-07-05T14:54:13.537Z,11.05
2018-07-05T15:00:14.531Z,10.54
2018-07-05T15:04:15.237Z,10.98
2018-07-05T15:10:15.710Z,11.26
2018-07-05T15:16:16.273Z,9.25
2018-07-05T15:20:16.861Z,11.23
2018-07-05T15:26:17.491Z,10.13
2018-07-05T15:30:18.549Z,10.21
2018-07-05T15:32:19.037Z,9.59
2018-07-05T15:36:19.726Z,9.58
2018-07-05T15:42:20.362Z,9.6
2018-07-05T15:46:20.866Z,10.86
2018-07-05T15:52:21.619Z,9.6
2018-07-05T15:56:22.261Z,9.73
2018-07-05T15:58:22.842Z,9.96
2018-07-05T16:02:23.517Z,9.58
2018-07-05T16:08:24.052Z,9.99
2018-07-05T16:12:24.765Z,8.78
2018-07-05T16:18:25.322Z,7.84
2018-07-05T16:24:25.830Z,13.39
2018-07-05T16:28:26.468Z,11.06
2018-07-05T16:34:27.229Z,6.89
2018-07-05T16:38:27.646Z,9.21
2018-07-05T16:44:28.300Z,8.93
2018-07-05T16:50:28.932Z,7.33
2018-07-05T16:54:29.486Z,9.59
2018-07-05T17:00:30.228Z,9.9
2018-07-05T17:04:30.784Z,8.12
2018-07-05T17:06:31.349Z,7.03
2018-07-05T17:10:31.987Z,8.47
2018-07-05T17:16:32.720Z,9.28
2018-07-05T17:20:33.263Z,11.32
2018-07-05T17:26:33.807Z,8.44
2018-07-05T17:30:34.432Z,11.14
2018-07-05T17:32:34.900Z,10.15
2018-07-05T17:36:35.543Z,9.51
2018-07-05T17:42:36.111Z,10.18
2018-07-05T17:46:36.667Z,10.45
2018-07-05T17:52:37.348Z,9.3
2018-07-05T17:58:37.990Z,9.12
2018-07-05T18:02:38.602Z,9.93
2018-07-05T18:08:39.457Z,9.02
2018-07-05T18:12:39.972Z,10.96
2018-07-05T18:18:40.574Z,11.51
2018-07-05T18:24:41.186Z,7.75
2018-07-05T18:28:41.794Z,9.56
2018-07-05T18:34:42.461Z,9.67
2018-07-05T18:38:43.251Z,9.65
2018-07-05T18:44:43.513Z,8.82
2018-07-05T18:50:44.067Z,8.09
2018-07-05T18:54:44.562Z,10.89
2018-07-05T19:00:45.198Z,9.44
2018-07-05T19:04:45.829Z,10.11
2018-07-05T19:06:46.428Z,9.63
2018-07-05T19:06:46.471Z,9.63
2018-07-05T19:10:47.100Z,10.01
2018-07-05T19:16:47.664Z,8.74
2018-07-05T19:20:48.144Z,9.84
2018-07-05T19:26:48.807Z,8.44
2018-07-05T19:30:49.330Z,10.79
2018-07-05T19:32:50.001Z,9.19
2018-07-05T19:36:50.651Z,9.7
2018-07-05T19:42:51.131Z,10.52
2018-07-05T19:46:51.691Z,10.24
2018-07-05T19:52:52.293Z,11.24
2018-07-05T19:58:52.903Z,9.9
2018-07-05T20:02:53.437Z,11.55
2018-07-05T20:08:54.160Z,11.62
2018-07-05T20:12:54.724Z,10.55
2018-07-05T20:18:55.255Z,11.62
2018-07-05T20:24:55.855Z,10.81
2018-07-05T20:28:56.531Z,12
2018-07-05T20:34:57.114Z,9.26
2018-07-05T20:38:57.748Z,10.78
2018-07-05T20:40:58.297Z,10.45
2018-07-05T20:44:58.822Z,12.53
2018-07-05T20:50:59.429Z,12.1
2018-07-05T20:55:00.050Z,10.87
2018-07-05T21:01:00.595Z,13.25
2018-07-05T21:05:01.126Z,12.77
2018-07-05T21:07:01.647Z,11.7
2018-07-05T21:11:02.208Z,13.75
2018-07-05T21:17:02.817Z,9.85
2018-07-05T21:21:03.312Z,10.98
2018-07-05T21:27:03.887Z,9.55
2018-07-05T21:33:04.474Z,12
2018-07-05T21:37:05.013Z,12.45
2018-07-05T21:43:05.582Z,11.57
2018-07-05T21:47:06.147Z,11.55
2018-07-05T21:53:06.794Z,12.07
2018-07-05T21:59:07.445Z,12.82
2018-07-05T22:03:08.067Z,16.35
2018-07-05T22:09:08.638Z,11.71
2018-07-05T22:13:09.211Z,11.81
2018-07-05T22:15:09.942Z,9.79
2018-07-05T22:19:10.601Z,10.9
2018-07-05T22:25:11.239Z,12.22
2018-07-05T22:29:11.725Z,12.32
2018-07-05T22:35:12.213Z,12.24
2018-07-05T22:39:12.815Z,15.15
2018-07-05T22:41:13.627Z,12.06
2018-07-05T22:45:14.866Z,13.89
2018-07-05T22:51:15.575Z,11.92
2018-07-05T22:55:16.172Z,13.02
2018-07-05T23:01:16.741Z,13.06
2018-07-05T23:05:17.279Z,14.57
2018-07-05T23:07:17.795Z,12.11
2018-07-05T23:11:18.304Z,14.46
2018-07-05T23:17:18.867Z,12.18
2018-07-05T23:21:19.452Z,13.4
2018-07-05T23:27:20.147Z,14.38
2018-07-05T23:33:20.784Z,12.7
2018-07-05T23:37:21.299Z,14.57
2018-07-05T23:43:21.794Z,12.45
2018-07-05T23:47:22.393Z,12.04
2018-07-05T23:53:22.933Z,13.83
2018-07-05T23:59:23.534Z,13.05
